AirNav   Duncan Aviation - Near you to keep you flying
 
 1196 users online  

3S2 Swans Field Airport
Dixfield, Maine, USA

GOING TO DIXFIELD?


FAA INFORMATION EFFECTIVE 14 JULY 2022

Location

FAA Identifier: 3S2
Lat/Long: 44-30-50.9000N 070-24-24.5000W
44-30.848333N 070-24.408333W
44.5141389,-70.4068056
(estimated)
Elevation: 418.4 ft. / 128 m (estimated)
Variation: 18W (1985)
From city: 3 miles SE of DIXFIELD, ME
Time zone: UTC -4 (UTC -5 during Standard Time)
Zip code: 04224

Airport Operations

Airport use: Open to the public
Activation date: 05/1971
Control tower: no
ARTCC: BOSTON CENTER
FSS: BANGOR FLIGHT SERVICE STATION
NOTAMs facility: BGR (NOTAM-D service available)
Attendance: UNATNDD
Wind indicator: yes
Segmented circle: no

Airport Communications

CTAF: 122.9
WX AWOS-AV at 0B1 (18 nm W): 122.9 (207-512-2516)

Nearby radio navigation aids

VOR radial/distance  VOR name  Freq  Var
AUGr312/28.6AUGUSTA VOR/DME114.9518W

Airport Services

Parking: hangars and tiedowns
Airframe service: NONE
Powerplant service: NONE

Runway Information

Runway 12/30

Dimensions: 1808 x 40 ft. / 551 x 12 m
Surface: turf, in good condition
RUNWAY 12  RUNWAY 30
Latitude: 44-30.924372N44-30.773688N
Longitude: 070-24.588318W070-24.229843W
Elevation: 417.9 ft.418.4 ft.
Traffic pattern: leftleft
Runway heading: 139 magnetic, 121 true319 magnetic, 301 true
Touchdown point: yes, no lightsyes, no lights
Obstructions: 55 ft. trees, 65 ft. right of centerline
+40 FT-50 FT TREES FM THR TO 400 FT SOUTHEAST, 35 FT LEFT OF CNTRLN.
8 ft. trees
+4 FT BERM EOR ACRS RWY BNTH TREES; +12 FT DIRT PILE 20 FT FM THR ON CNTRLN.

Airport Ownership and Management from official FAA records

Ownership: Privately-owned
Owner: ROYAL SWAN
1308 CANTON PT. ROAD
DIXFIELD, ME 04224
Phone (207) 491-5025
Manager: ROYAL SWAN
1308 CANTON PT. ROAD
DIXFIELD, ME 04224
Phone (207) 491-5025

Airport Operational Statistics

Aircraft based on the field: 7
Single engine airplanes: 7
    
Aircraft operations: avg 43/month *
98% local general aviation
2% transient general aviation
* for 12-month period ending 06 August 2019

Additional Remarks

CTC AMGR FOR RWY CONDS IN WINTER: 207-491-5025.
ACCESS ROADWAY 45 FT FM RWY 12/30, CNTRLN ALG NORTH SIDE.
PVT ROADWAY, +10 FT, CROSSES RWY 12/30 APRX 700 FT FM NW THR.
WILDLIFE ON OR INVOF ARPT.
FOR CD CTC PORTLAND APCH AT 207-874-7320, WHEN APCH CLSD CTC BOSTON ARTCC AT 603-879-6859.

Instrument Procedures

There are no published instrument procedures at 3S2.

Some nearby airports with instrument procedures:

0B1 - Bethel Regional Airport (18 nm W)
81B - Oxford County Regional Airport (22 nm S)
KOWK - Central Maine /Norridgewock Airport (26 nm NE)
KLEW - Auburn/Lewiston Municipal Airport (28 nm S)
M57 - Rangeley Lake Seaplane Base (29 nm N)
 
Loc | Ops | Rwys | IFR | FBO | Links
Com | Nav | Svcs | Stats | Notes
Area around 3S2 (Swans Field Airport)
 
Road maps at: MapQuest Bing Google
 
Aerial photo
WARNING: Photo may not be current or correct
Aerial photo of 3S2 (Swans Field Airport)
Do you have a better or more recent aerial photo of Swans Field Airport that you would like to share? If so, please send us your photo.

 
Sectional chart

 
Airport distance calculator
Flying to Swans Field Airport? Find the distance to fly.

From to 3S2

Sunrise and sunset
Times for 10-Aug-2022
 Local
(UTC-4)
 Zulu
(UTC)
Morning civil twilight05:0709:07
Sunrise05:3909:39
Sunset19:5423:54
Evening civil twilight20:2700:27

Current date and time
Zulu (UTC)  11-Aug-2022 00:29:37
Local (UTC-4)  10-Aug-2022 20:29:37
 
METAR
KAUG 
29nm SE 
102353Z AUTO VRB03KT 10SM OVC060 20/17 A3001 RMK AO2 SLP160 T02000172 10228 20200 56010
KLEW 
29nm S 
102356Z AUTO 15005KT 10SM OVC060 19/18 A3001 RMK AO2 SLP167 T01890178 10222 20189 55002
K8B0 
30nm NW 
101655Z AUTO VRB04KT 10SM FEW024 BKN030 OVC045 18/16 A3010 RMK AO2 P0001
KWVL 
32nm E 
102356Z AUTO 21004KT 10SM OVC060 20/18 A2998 RMK AO2 SLP176 T02000183 10228 20200 56010
KBML 
33nm W 
102352Z AUTO 00000KT 10SM OVC047 19/16 A3002 RMK AO2 SLP163 T01890156 10228 20189 58009
KIZG 
39nm SW 
110010Z AUTO 16003KT 10SM FEW014 SCT019 OVC039 21/18 A3000 RMK AO2 T02060183
KMWN 
40nm W 
102347Z 15005KT 60SM PRFG BKN/// SCT000 SCT080 09/09 RMK VIS E-S 1/8 PRFG SCT000 TPS LWR BKN060 T00940086 10121 20089
KIWI 
44nm SE 
102353Z AUTO 20003KT 10SM OVC060 19/16 A3002 RMK AO2 SLP165 T01940156 10211 20189 56010
KHIE 
50nm W 
102352Z AUTO 00000KT 10SM OVC042 19/15 A3002 RMK AO2 SLP164 T01890150 10211 20189 56012
TAF
KAUG 
29nm SE 
101734Z 1018/1118 00000KT P6SM BKN015 OVC025 FM102000 19005KT P6SM BKN030 FM102300 19003KT P6SM SCT040 FM110600 VRB02KT 1/2SM FG OVC002 FM111200 VRB03KT P6SM BKN010 FM111600 20005KT P6SM BKN035
NOTAMs
Click for the latest NOTAMs
NOTAMs are issued by the DoD/FAA and will open in a separate window not controlled by AirNav.

 

 
 

Would you like to see your business listed on this page?

 If your business provides an interesting product or service to pilots, flight crews, aircraft, or users of the Swans Field Airport, you should consider listing it here.  To start the listing process, click on the button below
 
Add a business
 

Other Pages about Swans Field Airport

Update a link
 
Copyright © AirNav, LLC. All rights reserved. Privacy Policy  Contact